createdAt,value
2019-02-09T00:00:59.560Z,984.80
2019-02-09T00:01:59.584Z,984.94
2019-02-09T00:02:59.629Z,984.99
2019-02-09T00:03:59.660Z,984.90
2019-02-09T00:04:59.700Z,984.83
2019-02-09T00:05:59.737Z,984.82
2019-02-09T00:06:59.778Z,984.85
2019-02-09T00:07:59.814Z,984.77
2019-02-09T00:08:59.873Z,984.70
2019-02-09T00:09:59.895Z,984.71
2019-02-09T00:10:59.928Z,984.76
2019-02-09T00:11:59.967Z,984.75
2019-02-09T00:13:00.003Z,984.74
2019-02-09T00:14:00.043Z,984.76
2019-02-09T00:15:00.091Z,984.80
2019-02-09T00:16:00.132Z,984.77
2019-02-09T00:17:00.158Z,984.76
2019-02-09T00:18:00.197Z,984.71
2019-02-09T00:19:00.235Z,984.65
2019-02-09T00:20:00.280Z,984.66
2019-02-09T00:21:00.320Z,984.65
2019-02-09T00:22:00.353Z,984.60
2019-02-09T00:23:00.388Z,984.67
2019-02-09T00:24:00.426Z,984.60
2019-02-09T00:25:00.463Z,984.62
2019-02-09T00:26:00.504Z,984.62
2019-02-09T00:27:00.543Z,984.63
2019-02-09T00:28:00.580Z,984.66
2019-02-09T00:29:00.617Z,984.54
2019-02-09T00:30:00.657Z,984.62
2019-02-09T00:31:00.697Z,984.56
2019-02-09T00:32:00.734Z,984.53
2019-02-09T00:33:00.773Z,984.54
2019-02-09T00:34:00.811Z,984.52
2019-02-09T00:35:00.850Z,984.52
2019-02-09T00:36:00.890Z,984.44
2019-02-09T00:37:00.940Z,984.38
2019-02-09T00:38:00.963Z,984.40
2019-02-09T00:39:01.002Z,984.40
2019-02-09T00:40:01.046Z,984.42
2019-02-09T00:41:01.079Z,984.33
2019-02-09T00:42:01.115Z,984.32
2019-02-09T00:43:01.153Z,984.30
2019-02-09T00:44:01.343Z,984.29
2019-02-09T00:45:01.230Z,984.22
2019-02-09T00:46:01.297Z,984.26
2019-02-09T00:47:01.309Z,984.20
2019-02-09T00:48:01.347Z,984.21
2019-02-09T00:49:01.385Z,984.23
2019-02-09T00:50:01.422Z,984.21
2019-02-09T00:51:01.462Z,984.25
2019-02-09T00:52:01.501Z,984.22
2019-02-09T00:53:01.535Z,984.15
2019-02-09T00:54:01.576Z,984.12
2019-02-09T00:55:01.614Z,984.15
2019-02-09T00:56:01.662Z,984.15
2019-02-09T00:57:01.690Z,984.20
2019-02-09T00:58:01.728Z,984.16
2019-02-09T00:59:01.767Z,984.18
2019-02-09T01:00:01.807Z,984.19
2019-02-09T01:01:01.843Z,984.24
2019-02-09T01:02:01.891Z,984.16
2019-02-09T01:03:01.921Z,984.15
2019-02-09T01:04:01.960Z,984.12
2019-02-09T01:05:02.000Z,984.05
2019-02-09T01:06:02.034Z,984.11
2019-02-09T01:07:02.092Z,984.08
2019-02-09T01:08:02.113Z,984.05
2019-02-09T01:09:02.151Z,984.07
2019-02-09T01:10:02.339Z,983.97
2019-02-09T01:11:02.233Z,983.96
2019-02-09T01:12:02.268Z,983.91
2019-02-09T01:13:02.310Z,983.89
2019-02-09T01:14:02.346Z,983.80
2019-02-09T01:15:02.380Z,983.77
2019-02-09T01:16:02.423Z,983.75
2019-02-09T01:17:02.558Z,983.71
2019-02-09T01:18:02.500Z,983.71
2019-02-09T01:19:02.534Z,983.66
2019-02-09T01:20:02.572Z,983.66
2019-02-09T01:21:02.610Z,983.60
2019-02-09T01:22:02.647Z,983.63
2019-02-09T01:23:02.686Z,983.60
2019-02-09T01:24:02.725Z,983.62
2019-02-09T01:25:02.766Z,983.66
2019-02-09T01:26:02.802Z,983.63
2019-02-09T01:27:02.849Z,983.59
2019-02-09T01:28:02.878Z,983.47
2019-02-09T01:29:02.927Z,983.42
2019-02-09T01:30:03.068Z,983.33
2019-02-09T01:31:02.993Z,983.40
2019-02-09T01:32:03.029Z,983.42
2019-02-09T01:33:03.069Z,983.51
2019-02-09T01:34:03.106Z,983.62
2019-02-09T01:35:03.146Z,983.53
2019-02-09T01:36:03.184Z,983.59
2019-02-09T01:37:03.222Z,983.48
2019-02-09T01:38:03.260Z,983.46
2019-02-09T01:39:03.299Z,983.43
2019-02-09T01:40:03.337Z,983.40
2019-02-09T01:41:03.375Z,983.32
2019-02-09T01:42:03.412Z,983.26
2019-02-09T01:43:03.449Z,983.33
2019-02-09T01:44:03.504Z,983.24
2019-02-09T01:45:03.524Z,983.26
2019-02-09T01:46:03.574Z,983.30
2019-02-09T01:47:03.603Z,983.28
2019-02-09T01:48:03.645Z,983.32
2019-02-09T01:49:03.680Z,983.30
2019-02-09T01:50:03.741Z,983.23
2019-02-09T01:51:03.754Z,983.26
2019-02-09T01:52:03.793Z,983.22
2019-02-09T01:53:03.831Z,983.20
2019-02-09T01:54:03.877Z,983.22
2019-02-09T01:55:03.909Z,983.19
2019-02-09T01:56:03.945Z,983.17
2019-02-09T01:57:03.984Z,983.18
2019-02-09T01:58:04.021Z,983.15
2019-02-09T01:59:04.062Z,983.07
2019-02-09T02:00:10.318Z,983.07
2019-02-09T02:01:04.155Z,983.09
2019-02-09T02:02:04.174Z,983.08
2019-02-09T02:03:04.215Z,983.07
2019-02-09T02:04:04.253Z,983.12
2019-02-09T02:05:04.293Z,983.18
2019-02-09T02:06:04.328Z,983.19
2019-02-09T02:07:04.366Z,983.21
2019-02-09T02:08:04.405Z,983.19
2019-02-09T02:09:04.444Z,983.21
2019-02-09T02:10:04.485Z,983.17
2019-02-09T02:11:04.528Z,983.22
2019-02-09T02:12:04.560Z,983.22
2019-02-09T02:13:04.600Z,983.21
2019-02-09T02:14:04.635Z,983.17
2019-02-09T02:15:04.673Z,983.12
2019-02-09T02:16:04.712Z,983.14
2019-02-09T02:17:04.747Z,983.13
2019-02-09T02:18:04.795Z,983.15
2019-02-09T02:19:04.825Z,983.17
2019-02-09T02:20:04.864Z,983.11
2019-02-09T02:21:04.906Z,983.13
2019-02-09T02:22:04.941Z,983.09
2019-02-09T02:23:04.989Z,983.14
2019-02-09T02:24:05.020Z,983.13
2019-02-09T02:25:05.064Z,983.14
2019-02-09T02:26:05.097Z,983.06
2019-02-09T02:27:05.138Z,983.09
2019-02-09T02:28:05.272Z,983.04
2019-02-09T02:29:05.209Z,983.04
2019-02-09T02:30:05.250Z,983.02
2019-02-09T02:31:05.287Z,983.00
2019-02-09T02:32:05.326Z,982.98
2019-02-09T02:33:05.365Z,982.97
2019-02-09T02:34:05.403Z,983.00
2019-02-09T02:35:05.442Z,982.90
2019-02-09T02:36:05.485Z,982.97
2019-02-09T02:37:05.519Z,983.01
2019-02-09T02:38:05.564Z,982.95
2019-02-09T02:39:05.604Z,982.95
2019-02-09T02:40:05.638Z,982.91
2019-02-09T02:41:05.671Z,983.00
2019-02-09T02:42:05.707Z,982.92
2019-02-09T02:43:05.752Z,982.92
2019-02-09T02:44:05.795Z,982.87
2019-02-09T02:45:05.823Z,982.87
2019-02-09T02:46:05.885Z,982.89
2019-02-09T02:47:05.909Z,982.91
2019-02-09T02:48:05.937Z,982.88
2019-02-09T02:49:05.977Z,982.94
2019-02-09T02:50:06.021Z,982.92
2019-02-09T02:51:06.053Z,982.80
2019-02-09T02:52:06.091Z,982.80
2019-02-09T02:53:06.128Z,982.77
2019-02-09T02:54:06.166Z,982.78
2019-02-09T02:55:06.208Z,982.77
2019-02-09T02:56:06.242Z,982.74
2019-02-09T02:57:06.300Z,982.70
2019-02-09T02:58:06.321Z,982.75
2019-02-09T02:59:06.358Z,982.69
2019-02-09T03:00:06.395Z,982.72
2019-02-09T03:01:06.432Z,982.57
2019-02-09T03:02:06.486Z,982.53
2019-02-09T03:03:06.510Z,982.51
2019-02-09T03:04:06.549Z,982.54
2019-02-09T03:05:06.585Z,982.57
2019-02-09T03:06:06.626Z,982.64
2019-02-09T03:07:06.661Z,982.60
2019-02-09T03:08:06.704Z,982.70
2019-02-09T03:09:06.736Z,982.64
2019-02-09T03:10:06.788Z,982.52
2019-02-09T03:11:06.815Z,982.54
2019-02-09T03:12:06.851Z,982.54
2019-02-09T03:13:06.899Z,982.54
2019-02-09T03:14:06.929Z,982.49
2019-02-09T03:15:06.973Z,982.57
2019-02-09T03:16:07.015Z,982.55
2019-02-09T03:17:07.042Z,982.56
2019-02-09T03:18:07.089Z,982.57
2019-02-09T03:19:07.115Z,982.59
2019-02-09T03:20:07.154Z,982.55
2019-02-09T03:21:07.194Z,982.50
2019-02-09T03:22:07.233Z,982.49
2019-02-09T03:23:07.270Z,982.47
2019-02-09T03:24:07.309Z,982.52
2019-02-09T03:25:07.344Z,982.48
2019-02-09T03:26:07.382Z,982.44
2019-02-09T03:27:07.420Z,982.37
2019-02-09T03:28:07.457Z,982.32
2019-02-09T03:29:07.495Z,982.44
2019-02-09T03:30:07.544Z,982.39
2019-02-09T03:31:07.571Z,982.37
2019-02-09T03:32:10.747Z,982.36
2019-02-09T03:33:07.649Z,982.36
2019-02-09T03:34:07.691Z,982.42
2019-02-09T03:35:07.723Z,982.46
2019-02-09T03:36:07.760Z,982.32
2019-02-09T03:37:07.799Z,982.46
2019-02-09T03:38:07.835Z,982.43
2019-02-09T03:39:07.880Z,982.25
2019-02-09T03:40:07.912Z,982.33
2019-02-09T03:41:08.107Z,982.33
2019-02-09T03:42:07.990Z,982.41
2019-02-09T03:43:08.025Z,982.42
2019-02-09T03:44:08.062Z,982.49
2019-02-09T03:45:08.101Z,982.47
2019-02-09T03:46:08.138Z,982.43
2019-02-09T03:47:08.176Z,982.45
2019-02-09T03:48:08.219Z,982.50
2019-02-09T03:49:08.252Z,982.46
2019-02-09T03:50:08.289Z,982.52
2019-02-09T03:51:08.326Z,982.54
2019-02-09T03:52:08.364Z,982.51
2019-02-09T03:53:08.404Z,982.47
2019-02-09T03:54:08.446Z,982.40
2019-02-09T03:55:08.476Z,982.43
2019-02-09T03:56:08.516Z,982.47
2019-02-09T03:57:08.562Z,982.42
2019-02-09T03:58:08.590Z,982.41
2019-02-09T03:59:08.629Z,982.31
2019-02-09T04:00:08.674Z,982.32
2019-02-09T04:01:08.705Z,982.36
2019-02-09T04:02:08.742Z,982.35
2019-02-09T04:03:08.778Z,982.33
2019-02-09T04:04:08.821Z,982.34
2019-02-09T04:05:08.863Z,982.33
2019-02-09T04:06:08.900Z,982.35
2019-02-09T04:07:08.932Z,982.31
2019-02-09T04:08:08.972Z,982.29
2019-02-09T04:09:09.007Z,982.34
2019-02-09T04:10:09.053Z,982.32
2019-02-09T04:11:09.080Z,982.27
2019-02-09T04:12:09.119Z,982.21
2019-02-09T04:13:09.159Z,982.18
2019-02-09T04:14:09.195Z,982.18
2019-02-09T04:15:09.241Z,982.16
2019-02-09T04:16:09.278Z,982.15
2019-02-09T04:17:09.308Z,982.17
2019-02-09T04:18:09.347Z,982.22
2019-02-09T04:19:09.388Z,982.24
2019-02-09T04:20:09.423Z,982.24
2019-02-09T04:21:09.461Z,982.32
2019-02-09T04:22:09.496Z,982.26
2019-02-09T04:23:09.535Z,982.21
2019-02-09T04:24:09.591Z,982.30
2019-02-09T04:25:09.610Z,982.27
2019-02-09T04:26:09.651Z,982.36
2019-02-09T04:27:09.685Z,982.30
2019-02-09T04:28:09.724Z,982.26
2019-02-09T04:29:09.765Z,982.28
2019-02-09T04:30:10.515Z,982.22
2019-02-09T04:31:09.844Z,982.19
2019-02-09T04:32:09.890Z,982.16
2019-02-09T04:33:09.915Z,982.14
2019-02-09T04:34:09.950Z,982.08
2019-02-09T04:35:09.989Z,982.05
2019-02-09T04:36:10.028Z,981.97
2019-02-09T04:37:10.064Z,981.95
2019-02-09T04:38:10.152Z,981.84
2019-02-09T04:39:10.154Z,981.86
2019-02-09T04:40:10.180Z,981.78
2019-02-09T04:41:10.220Z,981.77
2019-02-09T04:42:10.327Z,981.77
2019-02-09T04:43:10.302Z,981.95
2019-02-09T04:44:10.333Z,981.95
2019-02-09T04:45:10.369Z,981.99
2019-02-09T04:46:10.405Z,981.96
2019-02-09T04:47:10.453Z,981.91
2019-02-09T04:48:10.482Z,981.87
2019-02-09T04:49:10.527Z,981.86
2019-02-09T04:50:10.555Z,981.89
2019-02-09T04:51:10.609Z,982.02
2019-02-09T04:52:10.634Z,982.03
2019-02-09T04:53:10.669Z,982.05
2019-02-09T04:54:10.712Z,982.02
2019-02-09T04:55:10.745Z,982.07
2019-02-09T04:56:10.786Z,982.00
2019-02-09T04:57:10.821Z,982.00
2019-02-09T04:58:10.858Z,982.08
2019-02-09T04:59:10.896Z,982.06
2019-02-09T05:00:10.935Z,982.04
2019-02-09T05:01:13.973Z,982.15
2019-02-09T05:02:11.010Z,982.15
2019-02-09T05:03:11.049Z,982.18
2019-02-09T05:04:11.087Z,982.25
2019-02-09T05:05:11.122Z,982.28
2019-02-09T05:06:11.161Z,982.28
2019-02-09T05:07:11.199Z,982.32
2019-02-09T05:08:11.240Z,982.38
2019-02-09T05:09:11.277Z,982.42
2019-02-09T05:10:11.313Z,982.33
2019-02-09T05:11:11.357Z,982.48
2019-02-09T05:12:11.392Z,982.53
2019-02-09T05:13:11.427Z,982.54
2019-02-09T05:14:11.465Z,982.53
2019-02-09T05:15:11.502Z,982.62
2019-02-09T05:16:11.549Z,982.56
2019-02-09T05:17:11.577Z,982.60
2019-02-09T05:18:11.669Z,982.60
2019-02-09T05:19:11.656Z,982.72
2019-02-09T05:20:11.692Z,982.60
2019-02-09T05:21:11.730Z,982.70
2019-02-09T05:22:11.768Z,982.70
2019-02-09T05:23:11.811Z,982.73
2019-02-09T05:24:11.844Z,982.74
2019-02-09T05:25:11.883Z,982.76
2019-02-09T05:26:11.919Z,982.71
2019-02-09T05:27:11.958Z,982.76
2019-02-09T05:28:12.004Z,982.77
2019-02-09T05:29:12.032Z,982.73
2019-02-09T05:30:12.071Z,982.63
2019-02-09T05:31:12.112Z,982.72
2019-02-09T05:32:12.225Z,982.72
2019-02-09T05:33:12.185Z,982.77
2019-02-09T05:34:12.231Z,982.80
2019-02-09T05:35:12.261Z,982.71
2019-02-09T05:36:12.300Z,982.66
2019-02-09T05:37:12.336Z,982.63
2019-02-09T05:38:12.375Z,982.53
2019-02-09T05:39:12.414Z,982.48
2019-02-09T05:40:12.450Z,982.44
2019-02-09T05:41:12.486Z,982.40
2019-02-09T05:42:12.527Z,982.39
2019-02-09T05:43:12.567Z,982.38
2019-02-09T05:44:12.602Z,982.34
2019-02-09T05:45:12.641Z,982.32
2019-02-09T05:46:12.678Z,982.32
2019-02-09T05:47:12.722Z,982.48
2019-02-09T05:48:12.752Z,982.53
2019-02-09T05:49:12.793Z,982.53
2019-02-09T05:50:12.831Z,982.66
2019-02-09T05:51:12.878Z,982.73
2019-02-09T05:52:12.906Z,982.76
2019-02-09T05:53:12.941Z,982.77
2019-02-09T05:54:12.989Z,982.78
2019-02-09T05:55:13.028Z,982.82
2019-02-09T05:56:13.106Z,982.95
2019-02-09T05:57:13.094Z,982.91
2019-02-09T05:58:13.129Z,983.02
2019-02-09T05:59:13.169Z,982.94
2019-02-09T06:00:13.204Z,982.94
2019-02-09T06:01:13.244Z,982.95
2019-02-09T06:02:13.282Z,982.98
2019-02-09T06:03:13.337Z,982.97
2019-02-09T06:04:13.359Z,983.10
2019-02-09T06:05:13.394Z,983.17
2019-02-09T06:06:13.433Z,983.18
2019-02-09T06:07:13.469Z,983.24
2019-02-09T06:08:13.509Z,983.27
2019-02-09T06:09:13.546Z,983.34
2019-02-09T06:10:13.584Z,983.38
2019-02-09T06:11:13.622Z,983.37
2019-02-09T06:12:13.660Z,983.37
2019-02-09T06:13:13.697Z,983.40
2019-02-09T06:14:13.736Z,983.35
2019-02-09T06:15:13.773Z,983.29
2019-02-09T06:16:13.811Z,983.22
2019-02-09T06:17:13.850Z,983.25
2019-02-09T06:18:13.887Z,983.25
2019-02-09T06:19:13.934Z,983.20
2019-02-09T06:20:13.964Z,983.12
2019-02-09T06:21:14.001Z,983.08
2019-02-09T06:22:14.041Z,983.20
2019-02-09T06:23:14.076Z,983.17
2019-02-09T06:24:14.116Z,983.22
2019-02-09T06:25:14.162Z,983.26
2019-02-09T06:26:14.188Z,983.23
2019-02-09T06:27:14.227Z,983.21
2019-02-09T06:28:14.265Z,983.34
2019-02-09T06:29:14.334Z,983.45
2019-02-09T06:30:14.349Z,983.43
2019-02-09T06:31:14.379Z,983.34
2019-02-09T06:32:14.416Z,983.31
2019-02-09T06:33:14.453Z,983.35
2019-02-09T06:34:14.503Z,983.37
2019-02-09T06:35:14.530Z,983.38
2019-02-09T06:36:14.571Z,983.36
2019-02-09T06:37:14.606Z,983.38
2019-02-09T06:38:14.641Z,983.40
2019-02-09T06:39:14.688Z,983.38
2019-02-09T06:40:14.720Z,983.44
2019-02-09T06:41:14.770Z,983.51
2019-02-09T06:42:14.794Z,983.49
2019-02-09T06:43:14.832Z,983.56
2019-02-09T06:44:14.873Z,983.58
2019-02-09T06:45:14.910Z,983.63
2019-02-09T06:46:14.945Z,983.62
2019-02-09T06:47:14.984Z,983.61
2019-02-09T06:48:15.023Z,983.67
2019-02-09T06:49:15.066Z,983.64
2019-02-09T06:50:15.098Z,983.68
2019-02-09T06:51:15.134Z,983.70
2019-02-09T06:52:15.176Z,983.73
2019-02-09T06:53:15.217Z,983.78
2019-02-09T06:54:15.252Z,983.79
2019-02-09T06:55:15.287Z,983.80
2019-02-09T06:56:15.323Z,983.80
2019-02-09T06:57:15.362Z,983.81
2019-02-09T06:58:15.401Z,983.83
2019-02-09T06:59:15.441Z,983.84
2019-02-09T07:00:15.478Z,983.87
2019-02-09T07:01:15.512Z,983.80
2019-02-09T07:02:15.551Z,983.88
2019-02-09T07:03:15.591Z,983.90
2019-02-09T07:04:15.627Z,983.88
2019-02-09T07:05:15.664Z,983.88
2019-02-09T07:06:15.710Z,983.90
2019-02-09T07:07:15.740Z,983.92
2019-02-09T07:08:16.791Z,983.89
2019-02-09T07:09:15.817Z,983.91
2019-02-09T07:10:15.856Z,983.94
2019-02-09T07:11:15.893Z,984.00
2019-02-09T07:12:15.931Z,984.04
2019-02-09T07:13:15.968Z,984.08
2019-02-09T07:14:16.006Z,984.19
2019-02-09T07:15:16.043Z,984.21
2019-02-09T07:16:16.082Z,984.32
2019-02-09T07:17:16.120Z,984.34
2019-02-09T07:18:16.160Z,984.34
2019-02-09T07:19:16.247Z,984.30
2019-02-09T07:20:16.234Z,984.30
2019-02-09T07:21:16.272Z,984.27
2019-02-09T07:22:16.310Z,984.24
2019-02-09T07:23:16.350Z,984.29
2019-02-09T07:24:16.390Z,984.34
2019-02-09T07:25:16.424Z,984.31
2019-02-09T07:26:16.461Z,984.34
2019-02-09T07:27:16.501Z,984.31
2019-02-09T07:28:16.549Z,984.37
2019-02-09T07:29:16.577Z,984.38
2019-02-09T07:30:16.623Z,984.42
2019-02-09T07:31:16.653Z,984.43
2019-02-09T07:32:16.701Z,984.40
2019-02-09T07:33:16.830Z,984.39
2019-02-09T07:34:16.768Z,984.47
2019-02-09T07:35:16.816Z,984.50
2019-02-09T07:36:16.845Z,984.48
2019-02-09T07:37:16.885Z,984.46
2019-02-09T07:38:16.919Z,984.47
2019-02-09T07:39:16.959Z,984.55
2019-02-09T07:40:16.999Z,984.58
2019-02-09T07:41:17.045Z,984.68
2019-02-09T07:42:17.074Z,984.62
2019-02-09T07:43:17.112Z,984.60
2019-02-09T07:44:17.149Z,984.58
2019-02-09T07:45:17.189Z,984.59
2019-02-09T07:46:17.229Z,984.55
2019-02-09T07:47:17.266Z,984.50
2019-02-09T07:48:17.316Z,984.52
2019-02-09T07:49:17.342Z,984.55
2019-02-09T07:50:17.380Z,984.64
2019-02-09T07:51:17.419Z,984.72
2019-02-09T07:52:17.458Z,984.70
2019-02-09T07:53:17.497Z,984.73
2019-02-09T07:54:17.541Z,984.80
2019-02-09T07:55:17.574Z,984.78
2019-02-09T07:56:17.614Z,984.72
2019-02-09T07:57:17.654Z,984.78
2019-02-09T07:58:17.691Z,984.63
2019-02-09T07:59:17.730Z,984.67
2019-02-09T08:00:17.769Z,984.69
2019-02-09T08:01:17.804Z,984.71
2019-02-09T08:02:17.852Z,984.67
2019-02-09T08:03:17.887Z,984.73
2019-02-09T08:04:17.928Z,984.75
2019-02-09T08:05:17.958Z,984.75
2019-02-09T08:06:18.001Z,984.79
2019-02-09T08:07:18.036Z,984.79
2019-02-09T08:08:18.076Z,984.84
2019-02-09T08:09:18.111Z,984.82
2019-02-09T08:10:18.159Z,984.85
2019-02-09T08:11:18.213Z,984.78
2019-02-09T08:12:18.229Z,984.80
2019-02-09T08:13:18.268Z,984.74
2019-02-09T08:14:18.320Z,984.84
2019-02-09T08:15:18.397Z,984.81
2019-02-09T08:16:18.391Z,984.82
2019-02-09T08:17:18.430Z,984.83
2019-02-09T08:18:18.466Z,984.91
2019-02-09T08:19:18.499Z,984.88
2019-02-09T08:20:18.557Z,984.93
2019-02-09T08:21:18.612Z,984.93
2019-02-09T08:22:18.615Z,984.99
2019-02-09T08:23:18.670Z,985.01
2019-02-09T08:24:18.702Z,985.00
2019-02-09T08:25:18.735Z,984.97
2019-02-09T08:26:18.776Z,984.89
2019-02-09T08:27:23.593Z,984.96
2019-02-09T08:28:18.848Z,984.94
2019-02-09T08:29:18.885Z,984.98
2019-02-09T08:30:19.259Z,984.95
2019-02-09T08:31:18.969Z,985.00
2019-02-09T08:32:19.003Z,984.93
2019-02-09T08:33:19.042Z,984.99
2019-02-09T08:34:19.080Z,984.93
2019-02-09T08:35:19.127Z,985.07
2019-02-09T08:36:19.158Z,985.14
2019-02-09T08:37:19.205Z,985.16
2019-02-09T08:38:19.235Z,985.11
2019-02-09T08:39:19.272Z,985.17
2019-02-09T08:40:19.311Z,985.13
2019-02-09T08:41:19.353Z,985.01
2019-02-09T08:42:19.388Z,985.03
2019-02-09T08:43:19.428Z,985.02
2019-02-09T08:44:19.466Z,985.07
2019-02-09T08:45:19.504Z,985.18
2019-02-09T08:46:19.655Z,985.18
2019-02-09T08:47:19.584Z,985.18
2019-02-09T08:48:19.622Z,985.24
2019-02-09T08:49:19.660Z,985.20
2019-02-09T08:50:19.699Z,985.15
2019-02-09T08:51:19.740Z,985.20
2019-02-09T08:52:19.779Z,985.23
2019-02-09T08:53:19.817Z,985.22
2019-02-09T08:54:19.855Z,985.25
2019-02-09T08:55:19.891Z,985.18
2019-02-09T08:56:19.934Z,985.33
2019-02-09T08:57:19.973Z,985.22
2019-02-09T08:58:20.011Z,985.16
2019-02-09T08:59:20.058Z,985.31
2019-02-09T09:00:20.092Z,985.34
2019-02-09T09:01:20.126Z,985.38
2019-02-09T09:02:20.907Z,985.46
2019-02-09T09:03:20.207Z,985.40
2019-02-09T09:04:20.249Z,985.35
2019-02-09T09:05:20.286Z,985.42
2019-02-09T09:06:20.324Z,985.32
2019-02-09T09:07:20.370Z,985.32
2019-02-09T09:08:20.407Z,985.35
2019-02-09T09:09:20.440Z,985.36
2019-02-09T09:10:20.531Z,985.35
2019-02-09T09:11:20.527Z,985.34
2019-02-09T09:12:20.558Z,985.52
2019-02-09T09:13:20.606Z,985.52
2019-02-09T09:14:20.787Z,985.46
2019-02-09T09:15:20.684Z,985.51
2019-02-09T09:16:20.725Z,985.52
2019-02-09T09:17:20.754Z,985.44
2019-02-09T09:18:20.796Z,985.53
2019-02-09T09:19:20.836Z,985.52
2019-02-09T09:20:20.925Z,985.56
2019-02-09T09:21:20.913Z,985.47
2019-02-09T09:22:20.955Z,985.61
2019-02-09T09:23:20.992Z,985.66
2019-02-09T09:24:21.045Z,985.59
2019-02-09T09:25:21.069Z,985.55
2019-02-09T09:26:21.120Z,985.60
2019-02-09T09:27:21.180Z,985.58
2019-02-09T09:28:21.188Z,985.69
2019-02-09T09:29:21.236Z,985.72
2019-02-09T09:30:21.278Z,985.60
2019-02-09T09:31:21.306Z,985.58
2019-02-09T09:32:28.506Z,985.80
2019-02-09T09:33:21.438Z,985.62
2019-02-09T09:34:21.425Z,985.67
2019-02-09T09:35:21.473Z,985.67
2019-02-09T09:36:21.513Z,985.75
2019-02-09T09:37:21.555Z,985.78
2019-02-09T09:38:21.590Z,985.76
2019-02-09T09:39:21.622Z,985.85
2019-02-09T09:40:21.663Z,985.91
2019-02-09T09:41:21.707Z,985.96
2019-02-09T09:42:21.742Z,985.96
2019-02-09T09:43:21.780Z,986.07
2019-02-09T09:44:21.821Z,985.89
2019-02-09T09:45:21.858Z,985.92
2019-02-09T09:46:21.907Z,985.99
2019-02-09T09:47:21.939Z,986.03
2019-02-09T09:48:21.982Z,986.07
2019-02-09T09:49:22.018Z,986.00
2019-02-09T09:50:22.058Z,986.03
2019-02-09T09:51:22.098Z,986.00
2019-02-09T09:52:22.138Z,986.02
2019-02-09T09:53:22.176Z,985.95
2019-02-09T09:54:22.215Z,986.01
2019-02-09T09:55:22.255Z,986.01
2019-02-09T09:56:22.297Z,986.08
2019-02-09T09:57:22.336Z,986.01
2019-02-09T09:58:22.377Z,985.96
2019-02-09T09:59:22.418Z,986.01
2019-02-09T10:00:22.471Z,986.03
2019-02-09T10:01:22.500Z,986.10
2019-02-09T10:02:22.537Z,986.17
2019-02-09T10:03:22.583Z,986.03
2019-02-09T10:04:22.621Z,986.12
2019-02-09T10:05:22.653Z,986.05
2019-02-09T10:06:22.707Z,986.06
2019-02-09T10:07:22.736Z,986.10
2019-02-09T10:08:22.775Z,986.06
2019-02-09T10:09:22.814Z,986.13
2019-02-09T10:10:22.855Z,986.08
2019-02-09T10:11:22.905Z,986.06
2019-02-09T10:12:22.943Z,986.00
2019-02-09T10:13:22.974Z,986.09
2019-02-09T10:14:23.012Z,986.06
2019-02-09T10:15:23.055Z,986.08
2019-02-09T10:16:23.094Z,985.99
2019-02-09T10:17:23.148Z,985.95
2019-02-09T10:18:23.174Z,985.95
2019-02-09T10:19:23.231Z,985.82
2019-02-09T10:20:23.255Z,985.92
2019-02-09T10:21:23.297Z,985.91
2019-02-09T10:22:23.337Z,985.97
2019-02-09T10:23:23.374Z,986.06
2019-02-09T10:24:23.416Z,986.14
2019-02-09T10:25:23.460Z,986.12
2019-02-09T10:26:23.495Z,986.21
2019-02-09T10:27:23.541Z,986.15
2019-02-09T10:28:23.576Z,986.07
2019-02-09T10:29:23.615Z,986.21
2019-02-09T10:30:23.658Z,986.22
2019-02-09T10:31:23.694Z,986.26
2019-02-09T10:32:23.736Z,986.20
2019-02-09T10:33:23.776Z,986.20
2019-02-09T10:34:23.815Z,986.13
2019-02-09T10:35:23.855Z,986.26
2019-02-09T10:36:23.894Z,986.25
2019-02-09T10:37:23.935Z,986.34
2019-02-09T10:38:23.977Z,986.26
2019-02-09T10:39:24.014Z,986.23
2019-02-09T10:40:24.064Z,986.17
2019-02-09T10:41:24.094Z,986.21
2019-02-09T10:42:24.135Z,986.13
2019-02-09T10:43:24.175Z,986.21
2019-02-09T10:44:24.213Z,986.16
2019-02-09T10:45:24.254Z,986.22
2019-02-09T10:46:24.293Z,986.23
2019-02-09T10:47:24.340Z,986.22
2019-02-09T10:48:24.381Z,986.24
2019-02-09T10:49:24.413Z,986.23
2019-02-09T10:50:24.453Z,986.27
2019-02-09T10:51:24.505Z,986.39
2019-02-09T10:52:24.535Z,986.28
2019-02-09T10:53:24.571Z,986.52
2019-02-09T10:54:24.625Z,986.47
2019-02-09T10:55:24.652Z,986.39
2019-02-09T10:56:24.694Z,986.37
2019-02-09T10:57:24.731Z,986.40
2019-02-09T10:58:24.773Z,986.45
2019-02-09T10:59:24.828Z,986.69
2019-02-09T11:00:24.853Z,986.52
2019-02-09T11:01:24.897Z,986.49
2019-02-09T11:02:24.941Z,986.55
2019-02-09T11:03:24.976Z,986.54
2019-02-09T11:04:25.012Z,986.43
2019-02-09T11:05:25.060Z,986.43
2019-02-09T11:06:25.097Z,986.39
2019-02-09T11:07:25.131Z,986.36
2019-02-09T11:08:25.171Z,986.33
2019-02-09T11:09:25.213Z,986.26
2019-02-09T11:10:25.251Z,986.32
2019-02-09T11:11:25.293Z,986.22
2019-02-09T11:12:25.340Z,986.24
2019-02-09T11:13:25.380Z,986.34
2019-02-09T11:14:25.426Z,986.23
2019-02-09T11:15:25.464Z,986.15
2019-02-09T11:16:25.494Z,986.23
2019-02-09T11:17:25.539Z,986.25
2019-02-09T11:18:25.580Z,986.28
2019-02-09T11:19:25.629Z,986.35
2019-02-09T11:20:25.656Z,986.29
2019-02-09T11:21:25.695Z,986.30
2019-02-09T11:22:25.735Z,986.33
2019-02-09T11:23:25.785Z,986.31
2019-02-09T11:24:25.827Z,986.26
2019-02-09T11:25:25.857Z,986.26
2019-02-09T11:26:25.906Z,986.44
2019-02-09T11:27:25.939Z,986.27
2019-02-09T11:28:25.977Z,986.16
2019-02-09T11:29:26.025Z,986.12
2019-02-09T11:30:26.059Z,986.19
2019-02-09T11:31:26.102Z,986.18
2019-02-09T11:32:26.143Z,986.18
2019-02-09T11:33:26.180Z,986.13
2019-02-09T11:34:26.221Z,986.18
2019-02-09T11:35:26.262Z,986.14
2019-02-09T11:36:26.302Z,986.02
2019-02-09T11:37:26.341Z,986.05
2019-02-09T11:38:26.381Z,986.17
2019-02-09T11:39:26.422Z,986.10
2019-02-09T11:40:26.461Z,986.09
2019-02-09T11:41:26.507Z,986.18
2019-02-09T11:42:26.542Z,986.22
2019-02-09T11:43:26.581Z,986.12
2019-02-09T11:44:26.621Z,986.07
2019-02-09T11:45:26.669Z,986.18
2019-02-09T11:46:26.704Z,986.19
2019-02-09T11:47:26.743Z,986.22
2019-02-09T11:48:26.782Z,986.15
2019-02-09T11:49:26.823Z,986.12
2019-02-09T11:50:26.862Z,986.17
2019-02-09T11:51:26.902Z,986.10
2019-02-09T11:52:26.954Z,986.17
2019-02-09T11:53:26.983Z,986.25
2019-02-09T11:54:27.030Z,986.19
2019-02-09T11:55:27.063Z,986.15
2019-02-09T11:56:27.106Z,986.16
2019-02-09T11:57:27.151Z,986.14
2019-02-09T11:58:27.187Z,986.20
2019-02-09T11:59:27.226Z,986.47
2019-02-09T12:00:27.288Z,986.23
2019-02-09T12:01:27.305Z,986.23
2019-02-09T12:02:27.344Z,986.26
2019-02-09T12:03:27.394Z,986.40
2019-02-09T12:04:27.429Z,986.37
2019-02-09T12:05:27.466Z,986.35
2019-02-09T12:06:27.507Z,986.35
2019-02-09T12:07:27.555Z,986.46
2019-02-09T12:08:27.639Z,986.45
2019-02-09T12:09:27.626Z,986.51
2019-02-09T12:10:27.674Z,986.39
2019-02-09T12:11:27.706Z,986.51
2019-02-09T12:12:27.761Z,986.56
2019-02-09T12:13:27.788Z,986.43
2019-02-09T12:14:27.828Z,986.41
2019-02-09T12:15:27.909Z,986.36
2019-02-09T12:16:27.919Z,986.49
2019-02-09T12:17:27.947Z,986.50
2019-02-09T12:18:27.989Z,986.39
2019-02-09T12:19:28.037Z,986.46
2019-02-09T12:20:28.069Z,986.54
2019-02-09T12:21:28.110Z,986.40
2019-02-09T12:22:28.151Z,986.32
2019-02-09T12:23:28.192Z,986.37
2019-02-09T12:24:28.238Z,986.32
2019-02-09T12:25:28.273Z,986.37
2019-02-09T12:26:28.312Z,986.46
2019-02-09T12:27:28.357Z,986.31
2019-02-09T12:28:28.395Z,986.35
2019-02-09T12:29:28.437Z,986.21